Time;durP1;ratioP1;P1;durP2;ratioP2;P2;SDS_P1;SDS_P2;PMS_P1;PMS_P2;Temp;Humidity;BMP_temperature;BMP_pressure;BME280_temperature;BME280_humidity;BME280_pressure;Samples;Min_cycle;Max_cycle;Signal;HPM_P1;HPM_P2
2021/11/23 00:00:11;;;;;;;12.70;8.73;;;3.60;99.90;;;;;;5055400;28;20416;-69
2021/11/23 00:02:38;;;;;;;11.43;9.73;;;3.60;99.90;;;;;;5055313;28;20483;-70
2021/11/23 00:05:05;;;;;;;13.47;11.30;;;3.50;99.90;;;;;;5054546;28;20858;-69
2021/11/23 00:07:30;;;;;;;14.50;12.10;;;3.20;99.90;;;;;;5036599;28;20417;-70
2021/11/23 00:09:56;;;;;;;12.87;10.63;;;3.00;99.90;;;;;;5048528;28;20415;-70
2021/11/23 00:12:23;;;;;;;14.40;11.77;;;2.90;99.90;;;;;;5040745;28;20182;-70
2021/11/23 00:14:48;;;;;;;16.67;11.10;;;2.90;99.90;;;;;;5054543;28;20190;-70
2021/11/23 00:17:15;;;;;;;14.57;11.13;;;2.90;99.90;;;;;;5053354;28;20428;-69
2021/11/23 00:19:40;;;;;;;13.20;10.47;;;2.90;99.90;;;;;;5053996;28;20174;-70
2021/11/23 00:22:06;;;;;;;13.40;10.30;;;3.00;99.90;;;;;;5053520;28;20750;-68
2021/11/23 00:24:31;;;;;;;13.67;11.70;;;3.10;99.90;;;;;;5053441;28;20707;-68
2021/11/23 00:26:57;;;;;;;13.27;10.43;;;3.20;99.90;;;;;;5053518;28;20198;-70
2021/11/23 00:29:23;;;;;;;13.17;10.30;;;3.20;99.90;;;;;;5053609;28;20178;-69
2021/11/23 00:31:48;;;;;;;14.33;11.50;;;3.10;99.90;;;;;;5035519;28;20221;-69
2021/11/23 00:34:14;;;;;;;13.17;10.67;;;3.00;99.90;;;;;;5052760;28;20186;-69
2021/11/23 00:36:39;;;;;;;14.00;10.30;;;2.90;99.90;;;;;;5052712;28;20196;-69
2021/11/23 00:39:05;;;;;;;14.40;12.13;;;2.80;99.90;;;;;;5053058;28;20177;-69
2021/11/23 00:41:31;;;;;;;16.40;12.90;;;2.60;99.90;;;;;;5052979;28;20233;-69
2021/11/23 00:43:56;;;;;;;14.20;10.97;;;2.50;99.90;;;;;;5053071;28;20547;-68
2021/11/23 00:46:22;;;;;;;14.13;11.00;;;2.50;99.90;;;;;;5052390;28;20206;-68
2021/11/23 00:48:47;;;;;;;16.17;11.87;;;2.60;99.90;;;;;;5052770;28;20170;-72
2021/11/23 00:51:13;;;;;;;14.03;10.90;;;2.70;99.90;;;;;;5052290;28;20619;-69
2021/11/23 00:53:39;;;;;;;13.27;10.60;;;2.70;99.90;;;;;;5034812;28;20178;-69
2021/11/23 00:56:05;;;;;;;11.93;10.27;;;2.70;99.90;;;;;;5052532;28;20459;-69
2021/11/23 00:58:32;;;;;;;13.30;11.23;;;2.60;99.90;;;;;;5052662;28;20456;-69
2021/11/23 01:00:58;;;;;;;15.43;10.50;;;2.50;99.90;;;;;;5052653;28;20882;-69
2021/11/23 01:03:24;;;;;;;15.90;12.00;;;2.50;99.90;;;;;;5052124;28;20583;-69
2021/11/23 01:05:50;;;;;;;15.30;12.50;;;2.40;99.90;;;;;;5052247;28;20507;-70
2021/11/23 01:08:17;;;;;;;16.93;11.80;;;2.40;99.90;;;;;;5052583;28;20437;-69
2021/11/23 01:10:44;;;;;;;17.20;12.13;;;2.50;99.90;;;;;;5051597;28;20188;-69
2021/11/23 01:13:09;;;;;;;14.83;11.03;;;2.40;99.90;;;;;;5052350;28;20424;-69
2021/11/23 01:15:36;;;;;;;16.83;11.40;;;2.40;99.90;;;;;;5051766;28;20432;-69
2021/11/23 01:18:02;;;;;;;18.27;12.20;;;2.30;99.90;;;;;;5052242;28;20170;-69
2021/11/23 01:20:28;;;;;;;21.43;12.27;;;2.30;99.90;;;;;;5052211;28;20404;-69
2021/11/23 01:22:54;;;;;;;19.83;12.70;;;2.20;99.90;;;;;;5052302;28;20409;-69
2021/11/23 01:25:20;;;;;;;16.00;12.83;;;2.10;99.90;;;;;;5051513;28;20475;-67
2021/11/23 01:27:45;;;;;;;16.80;13.57;;;2.00;99.90;;;;;;5051679;28;20175;-69
2021/11/23 01:30:13;;;;;;;18.67;13.63;;;2.00;99.90;;;;;;5051981;28;20169;-69
2021/11/23 01:32:39;;;;;;;19.83;13.80;;;2.10;99.90;;;;;;5052018;28;20221;-70
2021/11/23 01:35:08;;;;;;;15.33;10.77;;;2.20;99.90;;;;;;5051821;28;20436;-70
2021/11/23 01:37:34;;;;;;;16.40;10.23;;;2.30;99.90;;;;;;5052166;28;20417;-69
2021/11/23 01:40:00;;;;;;;11.93;9.90;;;2.40;99.90;;;;;;5052541;28;20428;-70
2021/11/23 01:42:26;;;;;;;12.70;9.37;;;2.60;99.90;;;;;;5052049;28;20461;-69
2021/11/23 01:44:52;;;;;;;12.20;9.63;;;2.70;99.90;;;;;;5034332;28;20460;-70
2021/11/23 01:47:17;;;;;;;13.00;10.90;;;2.70;99.90;;;;;;5052350;28;20405;-70
2021/11/23 01:49:43;;;;;;;15.50;11.93;;;2.80;99.90;;;;;;5053316;28;20420;-70
2021/11/23 01:52:09;;;;;;;15.20;11.37;;;2.70;99.90;;;;;;5052214;28;20223;-69
2021/11/23 01:54:35;;;;;;;15.03;11.13;;;2.50;99.90;;;;;;5051899;28;20201;-69
2021/11/23 01:57:01;;;;;;;20.27;12.50;;;2.40;99.90;;;;;;5051688;28;20413;-70
2021/11/23 01:59:27;;;;;;;17.27;12.47;;;2.40;99.90;;;;;;5051834;28;20408;-69
2021/11/23 02:01:53;;;;;;;15.33;12.07;;;2.30;99.90;;;;;;5051736;28;20428;-70
2021/11/23 02:04:18;;;;;;;15.37;12.53;;;2.30;99.90;;;;;;5051883;28;20276;-69
2021/11/23 02:06:44;;;;;;;18.10;12.07;;;2.40;99.90;;;;;;5051228;28;20193;-70
2021/11/23 02:09:10;;;;;;;20.00;11.80;;;2.50;99.90;;;;;;5047522;28;20174;-70
2021/11/23 02:11:36;;;;;;;15.60;11.90;;;2.60;99.90;;;;;;5051806;28;20451;-70
2021/11/23 02:14:03;;;;;;;16.27;10.40;;;2.70;99.90;;;;;;5052198;28;20181;-69
2021/11/23 02:16:30;;;;;;;13.43;9.93;;;2.80;99.90;;;;;;5051538;28;20444;-70
2021/11/23 02:18:55;;;;;;;17.20;13.10;;;2.90;99.90;;;;;;5051960;28;20919;-70
2021/11/23 02:21:21;;;;;;;15.10;11.60;;;2.90;99.90;;;;;;5054441;28;20417;-69
2021/11/23 02:23:47;;;;;;;14.70;11.07;;;2.70;99.90;;;;;;5055915;28;20253;-70
2021/11/23 02:26:12;;;;;;;13.97;11.33;;;2.60;99.90;;;;;;5055596;28;20682;-70
2021/11/23 02:28:38;;;;;;;15.30;11.70;;;2.50;99.90;;;;;;5055962;28;20170;-71
2021/11/23 02:31:06;;;;;;;15.80;11.50;;;2.40;99.90;;;;;;5055893;28;20245;-70
2021/11/23 02:33:32;;;;;;;16.90;10.17;;;2.40;99.90;;;;;;5038026;28;20429;-69
2021/11/23 02:36:01;;;;;;;14.00;10.83;;;2.50;99.90;;;;;;5055262;28;20948;-69
2021/11/23 02:38:27;;;;;;;17.73;12.30;;;2.70;99.90;;;;;;5055908;28;20408;-70
2021/11/23 02:40:54;;;;;;;14.57;11.53;;;2.70;99.90;;;;;;5055322;28;20412;-70
2021/11/23 02:43:21;;;;;;;13.00;11.30;;;2.60;99.90;;;;;;5037526;28;20822;-70
2021/11/23 02:45:47;;;;;;;15.77;12.23;;;2.60;99.90;;;;;;5054601;28;20432;-68
2021/11/23 02:48:14;;;;;;;14.90;10.50;;;2.50;99.90;;;;;;5055142;28;20425;-69
2021/11/23 02:50:46;;;;;;;15.27;11.23;;;2.60;99.90;;;;;;5055512;28;20171;-70
2021/11/23 02:53:12;;;;;;;15.70;11.10;;;2.70;99.90;;;;;;5057625;28;20468;-69
2021/11/23 02:55:38;;;;;;;13.27;11.83;;;2.60;99.90;;;;;;5063528;28;20975;-69
2021/11/23 02:58:06;;;;;;;13.00;10.90;;;2.50;99.90;;;;;;5063613;28;20257;-71
2021/11/23 03:00:33;;;;;;;17.83;11.53;;;2.30;99.90;;;;;;5060494;28;20917;-69
2021/11/23 03:02:59;;;;;;;17.80;11.50;;;2.30;99.90;;;;;;5060432;28;20416;-69
2021/11/23 03:05:27;;;;;;;14.47;12.77;;;2.40;99.90;;;;;;5055398;28;20522;-69
2021/11/23 03:07:54;;;;;;;18.87;12.80;;;2.30;99.90;;;;;;5056082;28;20171;-69
2021/11/23 03:10:22;;;;;;;15.00;12.07;;;2.20;99.90;;;;;;5054827;28;20432;-69
2021/11/23 03:12:52;;;;;;;13.80;10.90;;;2.30;99.90;;;;;;5054100;28;20429;-69
2021/11/23 03:15:18;;;;;;;14.30;11.80;;;2.40;99.90;;;;;;5054976;28;20437;-69
2021/11/23 03:17:45;;;;;;;15.50;11.00;;;2.50;99.90;;;;;;5054245;28;20424;-69
2021/11/23 03:20:13;;;;;;;12.60;10.70;;;2.40;99.90;;;;;;5054342;28;20760;-69
2021/11/23 03:22:38;;;;;;;16.13;10.57;;;2.30;99.90;;;;;;5054494;28;20175;-69
2021/11/23 03:25:06;;;;;;;13.63;10.73;;;2.30;99.90;;;;;;5036302;28;21001;-69
2021/11/23 03:27:32;;;;;;;13.00;11.40;;;2.20;99.90;;;;;;5053715;28;20229;-69
2021/11/23 03:29:58;;;;;;;14.83;11.60;;;2.20;99.90;;;;;;5053948;28;20921;-69
2021/11/23 03:32:24;;;;;;;15.60;11.60;;;2.30;99.90;;;;;;5053483;28;20420;-69
2021/11/23 03:34:52;;;;;;;14.67;11.37;;;2.50;99.90;;;;;;5053800;28;20205;-69
2021/11/23 03:37:23;;;;;;;13.57;10.93;;;2.60;99.90;;;;;;5053980;28;20408;-69
2021/11/23 03:39:51;;;;;;;15.40;11.07;;;2.80;99.90;;;;;;5054700;28;20405;-69
2021/11/23 03:42:17;;;;;;;15.00;11.33;;;2.90;99.90;;;;;;5054451;28;20447;-69
2021/11/23 03:44:44;;;;;;;15.77;10.60;;;3.00;99.90;;;;;;5036195;28;20456;-69
2021/11/23 03:47:11;;;;;;;14.40;11.07;;;3.10;99.90;;;;;;5036116;28;20767;-68
2021/11/23 03:49:37;;;;;;;13.30;9.97;;;3.20;99.90;;;;;;5054495;28;20794;-69
2021/11/23 03:52:04;;;;;;;14.47;11.70;;;3.10;99.90;;;;;;5054114;28;20397;-72
2021/11/23 03:54:30;;;;;;;17.73;11.57;;;3.00;99.90;;;;;;5053888;28;20447;-69
2021/11/23 03:56:55;;;;;;;18.90;11.50;;;2.90;99.90;;;;;;5053691;28;20401;-69
2021/11/23 03:59:21;;;;;;;17.93;10.73;;;3.00;99.90;;;;;;5036305;28;20531;-69
2021/11/23 04:01:47;;;;;;;14.30;11.57;;;3.10;99.90;;;;;;5053718;28;20182;-69
2021/11/23 04:04:12;;;;;;;12.60;10.77;;;3.20;99.90;;;;;;5054468;28;20696;-69
2021/11/23 04:06:38;;;;;;;24.87;10.73;;;3.30;99.90;;;;;;5053987;28;20205;-69
2021/11/23 04:09:05;;;;;;;14.03;10.47;;;3.40;99.90;;;;;;5051747;28;20171;-69
2021/11/23 04:11:30;;;;;;;14.33;11.20;;;3.50;99.90;;;;;;5050998;28;20969;-68
2021/11/23 04:13:57;;;;;;;16.57;11.80;;;3.50;99.90;;;;;;5054769;28;20416;-69
2021/11/23 04:16:23;;;;;;;13.40;10.50;;;3.60;99.90;;;;;;5054687;28;20259;-70
2021/11/23 04:18:50;;;;;;;15.40;10.77;;;3.50;99.90;;;;;;5054664;28;20432;-68
2021/11/23 04:21:17;;;;;;;11.83;10.03;;;3.60;99.90;;;;;;5054538;28;20416;-69
2021/11/23 04:23:42;;;;;;;13.00;10.30;;;3.60;99.90;;;;;;5055196;28;20453;-69
2021/11/23 04:26:08;;;;;;;13.70;10.40;;;3.50;99.90;;;;;;5036797;28;20456;-69
2021/11/23 04:28:34;;;;;;;13.80;11.40;;;3.60;99.90;;;;;;5054529;28;20573;-69
2021/11/23 04:31:00;;;;;;;16.03;12.27;;;3.70;99.90;;;;;;5054437;28;20178;-68
2021/11/23 04:33:26;;;;;;;18.50;12.90;;;3.70;99.90;;;;;;5053836;28;20428;-69
2021/11/23 04:35:51;;;;;;;18.00;11.00;;;3.80;99.90;;;;;;5054036;28;20205;-69
2021/11/23 04:38:17;;;;;;;12.93;10.70;;;3.70;99.90;;;;;;5054248;28;20398;-70
2021/11/23 04:40:43;;;;;;;14.87;11.37;;;3.50;99.90;;;;;;5053757;28;20170;-70
2021/11/23 04:43:09;;;;;;;12.83;11.40;;;3.50;99.90;;;;;;5035914;28;20208;-69
2021/11/23 04:45:36;;;;;;;14.10;10.83;;;3.40;99.90;;;;;;5050242;28;20614;-69
2021/11/23 04:48:02;;;;;;;14.63;11.90;;;3.60;99.90;;;;;;5051940;28;20413;-69
2021/11/23 04:50:28;;;;;;;13.37;11.10;;;3.70;99.90;;;;;;5054673;28;20492;-69
2021/11/23 04:52:54;;;;;;;13.50;10.87;;;3.80;99.90;;;;;;5049866;28;20753;-69
2021/11/23 04:55:20;;;;;;;14.37;11.70;;;3.90;99.90;;;;;;5052045;28;20206;-70
2021/11/23 04:57:46;;;;;;;16.23;11.37;;;3.90;99.90;;;;;;5052009;28;20432;-69
2021/11/23 05:00:14;;;;;;;13.47;10.77;;;3.90;99.90;;;;;;5053941;28;20494;-69
2021/11/23 05:02:40;;;;;;;16.87;11.93;;;4.00;99.90;;;;;;5046671;28;20930;-68
2021/11/23 05:05:07;;;;;;;16.43;11.27;;;4.00;99.90;;;;;;5044604;28;20461;-70
2021/11/23 05:07:32;;;;;;;12.47;10.40;;;4.00;99.90;;;;;;5049555;28;20419;-69
2021/11/23 05:10:01;;;;;;;13.87;10.93;;;4.10;99.90;;;;;;5048896;28;20491;-69
2021/11/23 05:12:26;;;;;;;16.20;11.30;;;4.20;99.90;;;;;;5059327;28;20232;-68
2021/11/23 05:14:52;;;;;;;14.53;10.77;;;4.20;99.90;;;;;;5052702;28;20465;-69
2021/11/23 05:17:18;;;;;;;17.03;13.10;;;4.20;99.90;;;;;;5068058;28;20703;-69
2021/11/23 05:19:44;;;;;;;14.97;11.80;;;4.30;99.90;;;;;;5059822;28;20301;-69
2021/11/23 05:22:10;;;;;;;12.70;11.07;;;4.30;99.90;;;;;;5061914;28;20863;-69
2021/11/23 05:24:36;;;;;;;12.97;10.87;;;4.30;99.90;;;;;;5057620;28;20592;-70
2021/11/23 05:27:02;;;;;;;16.70;11.13;;;4.30;99.90;;;;;;5050305;28;20446;-69
2021/11/23 05:29:28;;;;;;;14.40;11.10;;;4.30;99.90;;;;;;5052834;28;20263;-70
2021/11/23 05:31:54;;;;;;;12.60;9.93;;;4.30;99.90;;;;;;5035418;28;20438;-70
2021/11/23 05:34:20;;;;;;;14.00;11.37;;;4.30;99.90;;;;;;5052889;28;20810;-70
2021/11/23 05:36:46;;;;;;;12.83;11.10;;;4.40;99.90;;;;;;5035509;28;20206;-69
2021/11/23 05:39:12;;;;;;;16.10;12.33;;;4.40;99.90;;;;;;5052623;28;20218;-70
2021/11/23 05:41:38;;;;;;;13.80;11.23;;;4.40;99.90;;;;;;5053536;28;20462;-70
2021/11/23 05:44:04;;;;;;;15.13;11.20;;;4.50;99.90;;;;;;5053077;28;20825;-70
2021/11/23 05:46:29;;;;;;;16.13;11.70;;;4.50;99.90;;;;;;5052083;28;20286;-69
2021/11/23 05:48:55;;;;;;;13.30;11.73;;;4.60;99.90;;;;;;5052222;28;20289;-70
2021/11/23 05:51:21;;;;;;;16.00;13.20;;;4.50;99.90;;;;;;5054716;28;20248;-70
2021/11/23 05:53:47;;;;;;;14.03;11.63;;;4.50;99.90;;;;;;5061620;28;20855;-71
2021/11/23 05:56:13;;;;;;;20.37;13.77;;;4.50;99.90;;;;;;5060976;28;20431;-74
2021/11/23 05:58:38;;;;;;;16.67;12.53;;;4.60;99.90;;;;;;5051638;28;20188;-71
2021/11/23 06:01:05;;;;;;;16.10;12.30;;;4.60;99.90;;;;;;5067823;28;20249;-72
2021/11/23 06:03:31;;;;;;;15.23;11.90;;;4.50;99.90;;;;;;5053709;28;20225;-71
2021/11/23 06:05:57;;;;;;;18.77;12.13;;;4.50;99.90;;;;;;5072079;28;20475;-71
2021/11/23 06:08:22;;;;;;;15.87;12.80;;;4.50;99.90;;;;;;5066167;28;20532;-70
2021/11/23 06:10:48;;;;;;;15.73;12.87;;;4.60;99.90;;;;;;5051328;28;20211;-72
2021/11/23 06:13:14;;;;;;;14.97;12.30;;;4.50;99.90;;;;;;5053078;28;20201;-71
2021/11/23 06:15:43;;;;;;;20.80;12.70;;;4.40;99.90;;;;;;5051638;28;20221;-71
2021/11/23 06:18:13;;;;;;;16.50;12.80;;;4.40;99.90;;;;;;5053558;28;20223;-70
2021/11/23 06:20:38;;;;;;;16.57;12.20;;;4.50;99.90;;;;;;5052325;28;20471;-71
2021/11/23 06:23:04;;;;;;;15.27;12.67;;;4.50;99.90;;;;;;5051022;28;20456;-74
2021/11/23 06:25:30;;;;;;;16.30;12.00;;;4.60;99.90;;;;;;5056811;28;20231;-70
2021/11/23 06:27:57;;;;;;;16.63;12.43;;;4.70;99.90;;;;;;5072429;28;20717;-72
2021/11/23 06:30:22;;;;;;;20.63;13.83;;;4.70;99.90;;;;;;5072465;28;20496;-71
2021/11/23 06:32:49;;;;;;;18.60;14.67;;;4.80;99.90;;;;;;5054620;28;20956;-69
2021/11/23 06:35:15;;;;;;;18.17;13.87;;;4.80;99.90;;;;;;5051467;28;20482;-70
2021/11/23 06:37:42;;;;;;;20.83;14.83;;;4.80;99.90;;;;;;5050234;28;20487;-70
2021/11/23 06:40:09;;;;;;;18.50;14.47;;;4.90;99.90;;;;;;5033311;28;20456;-70
2021/11/23 06:42:35;;;;;;;20.40;15.40;;;5.00;99.90;;;;;;5050692;28;20448;-70
2021/11/23 06:45:01;;;;;;;19.17;15.40;;;5.00;99.90;;;;;;5051207;28;20904;-71
2021/11/23 06:47:27;;;;;;;22.33;15.73;;;5.10;99.90;;;;;;5050973;28;20442;-69
2021/11/23 06:49:53;;;;;;;20.90;15.83;;;5.10;99.90;;;;;;5051342;28;20251;-69
2021/11/23 06:52:19;;;;;;;25.73;15.97;;;5.10;99.90;;;;;;5050889;28;20448;-70
2021/11/23 06:54:46;;;;;;;22.40;14.97;;;5.10;99.90;;;;;;5050882;28;20448;-71
2021/11/23 06:57:12;;;;;;;22.40;16.07;;;5.20;99.90;;;;;;5051140;28;20480;-70
2021/11/23 06:59:38;;;;;;;20.77;16.10;;;5.20;99.90;;;;;;5053072;28;20452;-70
2021/11/23 07:02:05;;;;;;;22.83;16.47;;;5.20;99.90;;;;;;5051008;28;20516;-70
2021/11/23 07:04:30;;;;;;;24.30;17.17;;;5.30;99.90;;;;;;5050960;28;20518;-70
2021/11/23 07:06:56;;;;;;;29.07;18.00;;;5.30;99.90;;;;;;5051196;28;20448;-71
2021/11/23 07:09:22;;;;;;;26.60;17.20;;;5.30;99.90;;;;;;5081109;22;20260;-69
2021/11/23 07:11:48;;;;;;;32.77;19.50;;;5.30;99.90;;;;;;5063384;28;20189;-69
2021/11/23 07:14:14;;;;;;;26.53;18.07;;;5.30;99.90;;;;;;5074542;28;20479;-70
2021/11/23 07:16:40;;;;;;;26.57;17.70;;;5.30;99.90;;;;;;5074682;28;20478;-70
2021/11/23 07:19:06;;;;;;;24.47;18.37;;;5.40;99.90;;;;;;5074945;28;20442;-69
2021/11/23 07:21:32;;;;;;;23.27;17.40;;;5.40;99.90;;;;;;5073143;28;20537;-69
2021/11/23 07:23:58;;;;;;;27.53;18.10;;;5.50;99.90;;;;;;5074810;28;20478;-68
2021/11/23 07:26:25;;;;;;;24.53;17.87;;;5.50;99.90;;;;;;5074004;28;20400;-69
2021/11/23 07:28:51;;;;;;;23.70;18.07;;;5.60;99.90;;;;;;5074434;28;20419;-69
2021/11/23 07:31:16;;;;;;;24.30;18.80;;;5.60;99.90;;;;;;5073555;28;20408;-69
2021/11/23 07:33:43;;;;;;;27.50;18.40;;;5.70;99.90;;;;;;5074245;28;20177;-69
2021/11/23 07:36:08;;;;;;;29.87;19.63;;;5.70;99.90;;;;;;5075463;28;20166;-68
2021/11/23 07:38:34;;;;;;;26.23;19.60;;;5.50;99.90;;;;;;5073794;28;20461;-69
2021/11/23 07:41:00;;;;;;;29.53;18.83;;;5.30;99.90;;;;;;5074357;28;20408;-69
2021/11/23 07:43:25;;;;;;;28.27;18.03;;;5.30;99.90;;;;;;5072543;28;20186;-69
2021/11/23 07:45:51;;;;;;;26.47;18.67;;;5.20;99.90;;;;;;5073743;28;20427;-70
2021/11/23 07:48:17;;;;;;;28.27;19.40;;;5.20;99.90;;;;;;5074739;28;20226;-70
2021/11/23 07:50:42;;;;;;;29.67;19.20;;;5.20;99.90;;;;;;5077394;28;20196;-70
2021/11/23 07:53:08;;;;;;;26.70;19.80;;;5.40;99.90;;;;;;5071717;28;20618;-69
2021/11/23 07:55:34;;;;;;;33.20;20.53;;;5.40;99.90;;;;;;5074334;28;20626;-69
2021/11/23 07:58:00;;;;;;;30.07;19.97;;;5.50;99.90;;;;;;5074643;28;20444;-69
2021/11/23 08:00:28;;;;;;;33.93;20.30;;;5.60;99.90;;;;;;5061080;28;20201;-69
2021/11/23 08:02:55;;;;;;;27.43;20.27;;;5.60;99.90;;;;;;5054533;28;20936;-69
2021/11/23 08:05:21;;;;;;;27.60;19.83;;;5.60;99.90;;;;;;5053807;28;20452;-69
2021/11/23 08:07:47;;;;;;;28.40;19.37;;;5.60;99.90;;;;;;5056672;28;20409;-69
2021/11/23 08:10:12;;;;;;;30.33;20.03;;;5.60;99.90;;;;;;5060637;28;20546;-69
2021/11/23 08:12:38;;;;;;;26.53;18.73;;;5.70;99.90;;;;;;5053990;28;20165;-69
2021/11/23 08:15:05;;;;;;;27.70;19.93;;;5.70;99.90;;;;;;5063286;28;20186;-68
2021/11/23 08:17:31;;;;;;;27.70;21.50;;;5.70;99.90;;;;;;5073290;28;20563;-68
2021/11/23 08:19:57;;;;;;;32.00;21.67;;;5.70;99.90;;;;;;5073689;28;20443;-69
2021/11/23 08:22:23;;;;;;;32.70;22.87;;;5.70;99.90;;;;;;5073963;28;20431;-68
2021/11/23 08:24:49;;;;;;;34.37;22.30;;;5.50;99.90;;;;;;5073753;28;20578;-68
2021/11/23 08:27:15;;;;;;;32.90;21.67;;;5.50;99.90;;;;;;5072440;28;20420;-69
2021/11/23 08:29:40;;;;;;;29.33;20.60;;;5.60;99.90;;;;;;5073254;28;20517;-70
2021/11/23 08:32:06;;;;;;;32.40;20.30;;;5.60;99.90;;;;;;5073718;28;20162;-69
2021/11/23 08:34:32;;;;;;;30.43;20.50;;;5.50;99.90;;;;;;5073395;28;20355;-69
2021/11/23 08:36:58;;;;;;;27.37;20.00;;;5.40;99.90;;;;;;5073320;28;20490;-69
2021/11/23 08:39:23;;;;;;;27.60;19.57;;;5.50;99.90;;;;;;5073290;28;20315;-68
2021/11/23 08:41:49;;;;;;;35.40;21.80;;;5.60;99.90;;;;;;5061958;28;20189;-69
2021/11/23 08:44:15;;;;;;;29.40;20.53;;;5.70;99.90;;;;;;5053782;28;20224;-68
2021/11/23 08:46:41;;;;;;;30.20;19.90;;;5.80;99.90;;;;;;5052312;28;20188;-69
2021/11/23 08:49:07;;;;;;;29.17;20.10;;;5.80;99.90;;;;;;5053190;28;20425;-69
2021/11/23 08:51:37;;;;;;;27.30;19.90;;;5.80;99.90;;;;;;5054614;28;20288;-69
2021/11/23 08:54:05;;;;;;;31.03;21.57;;;5.90;99.90;;;;;;5035696;28;20475;-68
2021/11/23 08:56:44;;;;;;;32.87;21.63;;;6.00;99.90;;;;;;5053093;28;20412;-68
2021/11/23 08:59:13;;;;;;;31.37;20.63;;;6.00;99.90;;;;;;5055211;28;20436;-69
2021/11/23 09:01:40;;;;;;;28.40;20.60;;;6.10;99.90;;;;;;5071192;28;20562;-69
2021/11/23 09:04:06;;;;;;;31.37;20.23;;;6.00;99.90;;;;;;5053403;28;20467;-69
2021/11/23 09:06:34;;;;;;;33.83;22.13;;;6.10;99.90;;;;;;5051191;28;20413;-70
2021/11/23 09:09:05;;;;;;;31.30;21.80;;;6.10;99.90;;;;;;5051326;28;20339;-69
2021/11/23 09:11:31;;;;;;;35.13;23.73;;;6.20;99.90;;;;;;5056227;28;20409;-70
2021/11/23 09:13:56;;;;;;;32.83;23.27;;;6.20;99.90;;;;;;5065605;28;20434;-70
2021/11/23 09:16:23;;;;;;;34.60;23.67;;;6.20;99.90;;;;;;5071866;28;20661;-71
2021/11/23 09:18:49;;;;;;;30.03;23.47;;;6.20;99.90;;;;;;5074993;28;20170;-69
2021/11/23 09:21:15;;;;;;;35.60;24.40;;;6.20;99.90;;;;;;5072670;28;20465;-68
2021/11/23 09:23:41;;;;;;;33.63;21.50;;;6.20;99.90;;;;;;5074696;28;20178;-69
2021/11/23 09:26:07;;;;;;;34.47;22.57;;;6.20;99.90;;;;;;5076088;28;20420;-69
2021/11/23 09:28:32;;;;;;;33.27;22.83;;;6.10;99.90;;;;;;5076460;28;20807;-69
2021/11/23 09:30:58;;;;;;;32.53;23.47;;;6.10;99.90;;;;;;5074939;28;20180;-69
2021/11/23 09:33:24;;;;;;;40.83;24.30;;;6.10;99.90;;;;;;5078574;28;20170;-69
2021/11/23 09:35:49;;;;;;;31.57;22.07;;;6.20;99.90;;;;;;5079124;28;20181;-69
2021/11/23 09:38:15;;;;;;;35.23;23.27;;;6.30;99.90;;;;;;5084305;28;20176;-69
2021/11/23 09:40:41;;;;;;;34.07;22.83;;;6.40;99.90;;;;;;5080692;28;20197;-69
2021/11/23 09:43:07;;;;;;;31.00;21.87;;;6.50;99.90;;;;;;5085061;28;20779;-70
2021/11/23 09:45:33;;;;;;;33.73;23.87;;;6.40;99.90;;;;;;5076725;28;20456;-68
2021/11/23 09:48:12;;;;;;;32.47;23.27;;;6.40;99.90;;;;;;5058005;28;20175;-68
2021/11/23 09:50:40;;;;;;;30.83;23.00;;;6.40;99.90;;;;;;5053914;28;20420;-68
2021/11/23 09:53:07;;;;;;;33.57;24.03;;;6.30;99.90;;;;;;5057052;28;20424;-68
2021/11/23 09:55:32;;;;;;;28.60;22.03;;;6.40;99.90;;;;;;5066507;28;20471;-68
2021/11/23 09:57:58;;;;;;;33.03;22.60;;;6.40;99.90;;;;;;5065629;28;20408;-69
2021/11/23 10:00:36;;;;;;;33.93;23.30;;;6.50;99.90;;;;;;5065299;28;20251;-68
2021/11/23 10:03:11;;;;;;;31.90;21.90;;;6.50;99.90;;;;;;5061738;28;20163;-70
2021/11/23 10:05:40;;;;;;;33.80;23.40;;;6.40;99.90;;;;;;5062833;28;20507;-68
2021/11/23 10:08:17;;;;;;;32.20;22.60;;;6.50;99.90;;;;;;5078218;28;20404;-68
2021/11/23 10:10:52;;;;;;;31.00;22.00;;;6.50;99.90;;;;;;5073616;28;20443;-68
2021/11/23 10:13:19;;;;;;;32.00;23.30;;;6.40;99.90;;;;;;5072368;28;20985;-68
2021/11/23 10:15:47;;;;;;;33.27;24.50;;;6.40;99.90;;;;;;5072819;28;20403;-68
2021/11/23 10:18:19;;;;;;;34.07;23.93;;;6.40;99.90;;;;;;5073599;28;20882;-69
2021/11/23 10:20:47;;;;;;;34.07;26.40;;;6.50;99.90;;;;;;5073125;28;20458;-68
2021/11/23 10:23:30;;;;;;;44.20;26.50;;;6.40;99.90;;;;;;5072298;28;20452;-68
2021/11/23 10:26:18;;;;;;;38.40;26.47;;;6.20;99.90;;;;;;5072366;28;20392;-69
2021/11/23 10:28:55;;;;;;;36.37;24.70;;;6.20;99.90;;;;;;5070884;28;20748;-69
2021/11/23 10:31:29;;;;;;;36.47;25.10;;;6.20;99.90;;;;;;5072283;28;20403;-69
2021/11/23 10:34:03;;;;;;;33.07;25.43;;;6.20;99.90;;;;;;5072812;28;20396;-68
2021/11/23 10:36:44;;;;;;;37.50;27.40;;;6.20;99.90;;;;;;5062126;28;20495;-70
2021/11/23 10:39:14;;;;;;;40.10;26.23;;;6.20;99.90;;;;;;5052368;28;20455;-69
2021/11/23 10:41:43;;;;;;;38.80;26.23;;;6.20;99.90;;;;;;5061498;28;20439;-69
2021/11/23 10:44:27;;;;;;;36.57;26.80;;;6.20;99.90;;;;;;5075373;28;20959;-69
2021/11/23 10:46:55;;;;;;;38.00;25.17;;;6.40;99.90;;;;;;5075589;28;20503;-69
2021/11/23 10:49:28;;;;;;;38.60;26.63;;;6.30;99.90;;;;;;5075654;28;20434;-69
2021/11/23 10:51:54;;;;;;;37.97;24.23;;;6.30;99.90;;;;;;5068381;28;20417;-69
2021/11/23 10:54:20;;;;;;;35.20;24.30;;;6.40;99.90;;;;;;5054759;28;20796;-69
2021/11/23 10:57:04;;;;;;;30.40;22.17;;;6.30;99.90;;;;;;5054212;28;20178;-69
2021/11/23 10:59:30;;;;;;;34.23;21.90;;;6.40;99.90;;;;;;5055471;28;20435;-69
2021/11/23 11:01:57;;;;;;;34.40;24.70;;;6.50;99.90;;;;;;5057449;28;20967;-70
2021/11/23 11:04:26;;;;;;;35.43;23.90;;;6.40;99.90;;;;;;5055223;28;20531;-70
2021/11/23 11:06:53;;;;;;;29.90;22.30;;;6.40;99.90;;;;;;5053477;28;20424;-69
2021/11/23 11:09:20;;;;;;;34.83;24.60;;;6.50;99.90;;;;;;5056060;28;20509;-69
2021/11/23 11:11:45;;;;;;;28.07;21.57;;;6.60;99.90;;;;;;5055219;28;20442;-69
2021/11/23 11:14:12;;;;;;;31.00;20.60;;;6.60;99.90;;;;;;5056192;28;20831;-69
2021/11/23 11:16:39;;;;;;;30.67;19.83;;;6.70;99.90;;;;;;5055608;28;20186;-69
2021/11/23 11:19:11;;;;;;;29.37;20.20;;;6.60;99.90;;;;;;5055302;28;20433;-69
2021/11/23 11:22:03;;;;;;;31.53;20.97;;;6.60;99.90;;;;;;5059454;28;20929;-69
2021/11/23 11:24:42;;;;;;;31.40;21.23;;;6.80;99.90;;;;;;5055447;28;20815;-69
2021/11/23 11:27:26;;;;;;;25.30;18.40;;;6.90;99.90;;;;;;5054385;28;20416;-69
2021/11/23 11:29:52;;;;;;;28.30;17.23;;;6.80;99.90;;;;;;5057814;28;20867;-68
2021/11/23 11:32:34;;;;;;;30.10;21.53;;;6.90;99.90;;;;;;5065426;28;20461;-68
2021/11/23 11:35:24;;;;;;;27.20;19.20;;;6.80;99.90;;;;;;5061737;28;20214;-70
2021/11/23 11:37:51;;;;;;;29.47;19.90;;;6.80;99.90;;;;;;5057438;28;20804;-69
2021/11/23 11:40:42;;;;;;;28.13;20.00;;;6.90;99.90;;;;;;5074214;28;20534;-69
2021/11/23 11:43:09;;;;;;;29.83;19.30;;;6.90;99.90;;;;;;5074561;28;20442;-69
2021/11/23 11:45:48;;;;;;;29.73;18.83;;;6.80;99.90;;;;;;5071290;28;20447;-68
2021/11/23 11:48:41;;;;;;;27.83;19.53;;;6.70;99.90;;;;;;5066592;28;20420;-69
2021/11/23 11:51:07;;;;;;;33.90;18.70;;;6.70;99.90;;;;;;5072268;28;20400;-68
2021/11/23 11:53:43;;;;;;;28.77;19.67;;;6.90;99.90;;;;;;5065673;28;20441;-68
2021/11/23 11:56:10;;;;;;;29.13;20.30;;;7.00;99.90;;;;;;5072133;28;20912;-68
2021/11/23 11:58:44;;;;;;;29.33;20.20;;;7.00;99.90;;;;;;5074021;28;20899;-68
2021/11/23 12:01:23;;;;;;;27.93;20.13;;;7.10;99.90;;;;;;5073182;28;20396;-69
2021/11/23 12:04:18;;;;;;;29.33;19.47;;;7.10;99.90;;;;;;5072542;28;20455;-69
2021/11/23 12:06:53;;;;;;;29.43;18.53;;;7.20;99.90;;;;;;5060701;28;20900;-69
2021/11/23 12:09:32;;;;;;;27.70;18.50;;;7.30;99.90;;;;;;5053994;28;20447;-70
2021/11/23 12:12:23;;;;;;;30.87;19.53;;;7.30;99.90;;;;;;5066380;28;20412;-69
2021/11/23 12:14:52;;;;;;;27.17;18.73;;;7.40;99.90;;;;;;5071120;28;20420;-70
2021/11/23 12:17:43;;;;;;;26.90;19.63;;;7.40;99.90;;;;;;5065921;28;20412;-69
2021/11/23 12:20:38;;;;;;;34.50;19.90;;;7.50;99.90;;;;;;5058663;28;20463;-70
2021/11/23 12:23:32;;;;;;;32.67;18.57;;;7.20;99.90;;;;;;5054651;28;20543;-70
2021/11/23 12:26:01;;;;;;;27.47;18.03;;;7.20;99.90;;;;;;5061413;28;20462;-69
2021/11/23 12:28:29;;;;;;;28.77;18.00;;;7.20;99.90;;;;;;5055189;28;21090;-68
2021/11/23 12:30:56;;;;;;;30.37;18.80;;;7.30;99.90;;;;;;5061601;28;20443;-69
2021/11/23 12:33:22;;;;;;;30.43;20.37;;;7.40;99.90;;;;;;5061251;28;20470;-70
2021/11/23 12:35:48;;;;;;;28.07;19.57;;;7.40;99.90;;;;;;5066471;28;20444;-69
2021/11/23 12:38:26;;;;;;;28.23;18.87;;;7.30;99.90;;;;;;5065461;28;20482;-69
2021/11/23 12:40:52;;;;;;;31.33;19.60;;;7.30;99.90;;;;;;5056541;28;21082;-70